createdAt,value
2019-03-05T00:01:18.254Z,10.80
2019-03-05T00:03:49.669Z,7.60
2019-03-05T00:06:21.362Z,4.03
2019-03-05T00:08:52.030Z,6.17
2019-03-05T00:11:22.636Z,4.23
2019-03-05T00:13:54.778Z,5.27
2019-03-05T00:16:25.506Z,7.20
2019-03-05T00:18:56.963Z,5.13
2019-03-05T00:21:27.968Z,7.87
2019-03-05T00:24:18.773Z,9.40
2019-03-05T00:26:49.337Z,6.30
2019-03-05T00:30:06.556Z,8.43
2019-03-05T00:32:37.310Z,6.20
2019-03-05T00:35:33.650Z,5.20
2019-03-05T00:38:22.246Z,5.80
2019-03-05T00:41:30.023Z,3.17
2019-03-05T00:44:24.795Z,5.23
2019-03-05T00:47:34.495Z,8.30
2019-03-05T00:50:39.793Z,6.37
2019-03-05T00:53:27.451Z,9.37
2019-03-05T00:56:26.464Z,3.13
2019-03-05T00:59:41.976Z,3.73
2019-03-05T01:03:05.380Z,4.07
2019-03-05T01:06:12.783Z,4.90
2019-03-05T01:08:44.467Z,6.07
2019-03-05T01:11:15.295Z,3.83
2019-03-05T01:13:45.863Z,2.87
2019-03-05T01:16:18.287Z,2.73
2019-03-05T01:18:49.037Z,2.73
2019-03-05T01:21:20.649Z,6.07
2019-03-05T01:23:51.312Z,11.60
2019-03-05T01:26:22.228Z,8.07
2019-03-05T01:28:52.894Z,7.30
2019-03-05T01:31:52.063Z,6.93
2019-03-05T01:34:40.432Z,4.47
2019-03-05T01:37:11.770Z,10.00
2019-03-05T01:39:59.664Z,5.40
2019-03-05T01:42:30.256Z,2.40
2019-03-05T01:45:00.678Z,4.60
2019-03-05T01:47:31.206Z,6.53
2019-03-05T01:50:01.830Z,7.63
2019-03-05T01:52:33.568Z,7.53
2019-03-05T01:55:04.766Z,7.33
2019-03-05T01:57:35.760Z,6.57
2019-03-05T02:00:07.670Z,7.43
2019-03-05T02:02:38.425Z,3.27
2019-03-05T02:05:09.943Z,13.90
2019-03-05T02:07:40.648Z,11.90
2019-03-05T02:27:59.936Z,10.57
2019-03-05T02:30:44.111Z,10.47
2019-03-05T02:33:57.698Z,7.97
2019-03-05T02:36:58.057Z,6.00
2019-03-05T02:39:48.834Z,12.70
2019-03-05T02:43:00.149Z,9.33
2019-03-05T02:45:48.308Z,12.97
2019-03-05T02:48:50.789Z,11.43
2019-03-05T02:51:46.693Z,11.13
2019-03-05T02:54:46.959Z,6.57
2019-03-05T02:57:15.730Z,12.80
2019-03-05T02:59:46.327Z,9.00
2019-03-05T03:02:32.633Z,13.57
2019-03-05T03:05:22.522Z,5.50
2019-03-05T03:07:54.883Z,14.13
2019-03-05T03:10:27.065Z,10.30
2019-03-05T03:12:57.819Z,8.03
2019-03-05T03:15:28.632Z,9.83
2019-03-05T03:17:59.507Z,8.50
2019-03-05T03:20:30.844Z,6.93
2019-03-05T03:23:01.447Z,8.03
2019-03-05T03:25:32.753Z,7.30
2019-03-05T03:28:03.681Z,10.47
2019-03-05T03:30:34.601Z,6.37
2019-03-05T03:33:05.089Z,9.43
2019-03-05T03:35:35.825Z,9.10
2019-03-05T03:38:06.410Z,10.60
2019-03-05T03:40:36.932Z,6.90
2019-03-05T03:43:07.638Z,11.77
2019-03-05T03:45:38.173Z,11.43
2019-03-05T03:48:08.937Z,6.60
2019-03-05T03:50:39.633Z,9.57
2019-03-05T03:53:10.194Z,7.43
2019-03-05T03:55:40.937Z,4.30
2019-03-05T03:58:11.746Z,7.03
2019-03-05T04:00:42.701Z,9.27
2019-03-05T04:03:13.569Z,11.53
2019-03-05T04:05:44.185Z,6.63
2019-03-05T04:08:14.891Z,6.77
2019-03-05T04:10:45.616Z,11.23
2019-03-05T04:13:16.214Z,9.43
2019-03-05T04:15:47.012Z,4.40
2019-03-05T04:18:17.592Z,9.20
2019-03-05T04:20:51.475Z,6.90
2019-03-05T04:23:22.129Z,8.13
2019-03-05T04:25:53.152Z,14.07
2019-03-05T04:28:23.707Z,11.23
2019-03-05T04:30:54.254Z,10.37
2019-03-05T04:33:24.882Z,10.57
2019-03-05T04:35:55.496Z,9.37
2019-03-05T04:38:26.265Z,14.70
2019-03-05T04:40:56.945Z,9.33
2019-03-05T04:43:27.629Z,7.80
2019-03-05T04:46:18.300Z,12.13
2019-03-05T04:49:07.873Z,10.63
2019-03-05T04:51:45.209Z,13.70
2019-03-05T04:54:15.597Z,13.43
2019-03-05T04:56:46.292Z,9.03
2019-03-05T04:59:17.127Z,8.57
2019-03-05T05:01:50.863Z,11.40
2019-03-05T05:04:21.991Z,10.87
2019-03-05T05:06:52.681Z,10.87
2019-03-05T05:09:23.275Z,14.50
2019-03-05T05:11:53.936Z,14.17
2019-03-05T05:14:24.772Z,12.20
2019-03-05T05:16:55.814Z,14.87
2019-03-05T05:19:27.431Z,11.00
2019-03-05T05:21:58.136Z,12.23
2019-03-05T05:24:28.808Z,16.07
2019-03-05T05:26:59.407Z,13.03
2019-03-05T05:29:30.344Z,9.83
2019-03-05T05:32:01.080Z,10.67
2019-03-05T05:34:33.216Z,12.97
2019-03-05T05:37:03.800Z,12.60
2019-03-05T05:40:10.489Z,8.63
2019-03-05T05:42:41.076Z,9.40
2019-03-05T05:45:14.895Z,11.30
2019-03-05T05:47:45.489Z,10.40
2019-03-05T05:50:16.555Z,7.17
2019-03-05T05:52:47.366Z,8.70
2019-03-05T05:55:18.051Z,8.67
2019-03-05T05:57:48.683Z,9.30
2019-03-05T06:00:20.001Z,8.33
2019-03-05T06:02:50.605Z,13.37
2019-03-05T06:05:21.401Z,7.77
2019-03-05T06:07:51.965Z,8.03
2019-03-05T06:10:23.190Z,8.97
2019-03-05T06:12:54.033Z,7.40
2019-03-05T06:15:24.915Z,11.20
2019-03-05T06:17:55.403Z,9.37
2019-03-05T06:20:26.199Z,11.13
2019-03-05T06:22:57.342Z,9.07
2019-03-05T06:25:28.340Z,9.63
2019-03-05T06:27:59.081Z,6.30
2019-03-05T06:30:30.091Z,11.33
2019-03-05T06:33:00.816Z,6.07
2019-03-05T06:35:32.678Z,10.10
2019-03-05T06:38:03.381Z,10.20
2019-03-05T06:40:34.419Z,5.10
2019-03-05T06:43:05.708Z,14.97
2019-03-05T06:45:36.404Z,5.53
2019-03-05T06:48:07.226Z,7.13
2019-03-05T06:50:38.057Z,10.93
2019-03-05T06:53:08.990Z,6.47
2019-03-05T06:55:39.818Z,13.37
2019-03-05T06:58:11.852Z,7.10
2019-03-05T07:00:42.796Z,5.67
2019-03-05T07:03:13.691Z,8.60
2019-03-05T07:06:20.246Z,3.37
2019-03-05T07:09:14.407Z,3.57
2019-03-05T07:12:12.532Z,8.53
2019-03-05T07:15:18.238Z,9.27
2019-03-05T07:17:53.278Z,5.57
2019-03-05T07:21:00.631Z,3.80
2019-03-05T07:23:59.491Z,5.67
2019-03-05T07:26:30.625Z,8.10
2019-03-05T07:29:01.439Z,3.47
2019-03-05T07:31:32.256Z,5.73
2019-03-05T07:34:03.507Z,6.83
2019-03-05T07:36:34.098Z,3.97
2019-03-05T07:39:06.293Z,5.63
2019-03-05T07:41:37.237Z,6.70
2019-03-05T07:44:08.425Z,6.73
2019-03-05T07:46:39.237Z,5.53
2019-03-05T07:49:09.787Z,3.07
2019-03-05T07:51:41.520Z,3.50
2019-03-05T07:54:12.256Z,5.37
2019-03-05T07:56:43.398Z,5.20
2019-03-05T07:59:14.055Z,8.60
2019-03-05T08:01:44.979Z,8.60
2019-03-05T08:04:15.988Z,7.43
2019-03-05T08:06:47.020Z,3.87
2019-03-05T08:09:37.548Z,13.07
2019-03-05T08:13:00.810Z,4.67
2019-03-05T08:16:02.552Z,14.57
2019-03-05T08:18:29.512Z,2.70
2019-03-05T08:21:00.356Z,3.33
2019-03-05T08:23:31.124Z,5.60
2019-03-05T08:26:02.076Z,2.03
2019-03-05T08:28:32.996Z,3.60
2019-03-05T08:31:04.891Z,14.50
2019-03-05T08:33:35.684Z,2.20
2019-03-05T08:36:06.412Z,4.13
2019-03-05T08:38:37.552Z,3.90
2019-03-05T08:41:08.517Z,2.80
2019-03-05T08:43:39.303Z,7.23
2019-03-05T08:46:10.119Z,3.80
2019-03-05T08:48:41.085Z,6.23
2019-03-05T08:51:11.691Z,2.30
2019-03-05T08:53:49.604Z,7.60
2019-03-05T08:56:15.066Z,5.30
2019-03-05T08:58:45.870Z,3.47
2019-03-05T09:01:16.337Z,2.10
2019-03-05T09:03:48.401Z,2.17
2019-03-05T09:06:20.095Z,3.00
2019-03-05T09:08:50.738Z,13.50
2019-03-05T09:11:21.987Z,6.20
2019-03-05T09:13:52.909Z,7.53
2019-03-05T09:16:23.772Z,6.30
2019-03-05T09:18:54.526Z,2.00
2019-03-05T09:21:25.440Z,1.60
2019-03-05T09:23:57.072Z,13.77
2019-03-05T09:26:28.031Z,2.57
2019-03-05T09:28:58.820Z,2.80
2019-03-05T09:31:29.612Z,5.80
2019-03-05T09:34:00.452Z,2.53
2019-03-05T09:36:31.221Z,2.30
2019-03-05T09:39:03.201Z,3.03
2019-03-05T09:41:35.802Z,2.93
2019-03-05T09:44:06.383Z,1.73
2019-03-05T09:46:37.114Z,2.87
2019-03-05T09:49:07.826Z,5.67
2019-03-05T09:51:38.584Z,8.30
2019-03-05T09:54:09.576Z,1.83
2019-03-05T09:56:40.232Z,4.60
2019-03-05T09:59:11.071Z,18.43
2019-03-05T10:01:41.836Z,4.17
2019-03-05T10:04:12.696Z,10.33
2019-03-05T10:06:43.472Z,5.83
2019-03-05T10:09:14.395Z,11.63
2019-03-05T10:11:46.416Z,2.73
2019-03-05T10:14:17.655Z,2.63
2019-03-05T10:16:48.502Z,1.83
2019-03-05T10:19:19.418Z,8.20
2019-03-05T10:21:50.367Z,4.03
2019-03-05T10:24:21.231Z,4.80
2019-03-05T10:26:51.905Z,2.07
2019-03-05T10:29:22.829Z,6.00
2019-03-05T10:31:53.405Z,6.77
2019-03-05T10:34:24.308Z,3.47
2019-03-05T10:36:56.573Z,2.07
2019-03-05T10:39:31.023Z,3.30
2019-03-05T10:42:01.303Z,3.13
2019-03-05T10:44:33.251Z,2.67
2019-03-05T10:47:04.149Z,3.07
2019-03-05T10:49:35.022Z,8.20
2019-03-05T10:52:05.894Z,6.27
2019-03-05T10:54:36.506Z,2.57
2019-03-05T10:57:09.183Z,7.83
2019-03-05T10:59:39.799Z,2.10
2019-03-05T11:02:10.939Z,3.07
2019-03-05T11:04:45.679Z,2.30
2019-03-05T11:07:13.924Z,3.60
2019-03-05T11:09:45.698Z,4.20
2019-03-05T11:12:16.382Z,2.33
2019-03-05T11:14:47.286Z,19.63
2019-03-05T11:17:18.345Z,3.10
2019-03-05T11:19:49.295Z,10.57
2019-03-05T11:22:20.083Z,3.70
2019-03-05T11:24:51.099Z,4.30
2019-03-05T11:27:21.834Z,4.77
2019-03-05T11:29:52.417Z,2.37
2019-03-05T11:32:23.094Z,4.67
2019-03-05T11:34:54.152Z,5.10
2019-03-05T11:37:25.165Z,2.37
2019-03-05T11:39:55.872Z,2.77
2019-03-05T11:42:26.648Z,8.00
2019-03-05T11:45:07.106Z,3.33
2019-03-05T11:47:30.079Z,2.10
2019-03-05T11:50:00.937Z,10.83
2019-03-05T11:52:31.835Z,2.43
2019-03-05T11:55:03.003Z,1.73
2019-03-05T11:57:33.739Z,2.73
2019-03-05T12:00:04.401Z,5.50
2019-03-05T12:02:37.061Z,1.23
2019-03-05T12:05:09.255Z,2.73
2019-03-05T12:07:40.304Z,7.10
2019-03-05T12:10:12.296Z,2.53
2019-03-05T12:12:43.417Z,10.13
2019-03-05T12:15:15.268Z,26.63
2019-03-05T12:17:46.436Z,10.77
2019-03-05T12:20:17.153Z,4.37
2019-03-05T12:22:48.190Z,4.97
2019-03-05T12:25:18.913Z,1.43
2019-03-05T12:27:50.414Z,4.00
2019-03-05T12:30:22.652Z,4.00
2019-03-05T12:32:53.710Z,2.30
2019-03-05T12:35:24.355Z,16.23
2019-03-05T12:37:54.970Z,7.13
2019-03-05T12:40:25.674Z,8.87
2019-03-05T12:42:57.231Z,3.77
2019-03-05T12:45:28.087Z,4.97
2019-03-05T12:47:59.064Z,3.07
2019-03-05T12:50:30.879Z,8.23
2019-03-05T12:53:01.902Z,29.30
2019-03-05T12:55:32.681Z,7.57
2019-03-05T12:58:03.694Z,3.43
2019-03-05T13:00:35.059Z,8.47
2019-03-05T13:03:05.836Z,6.93
2019-03-05T13:05:36.541Z,10.17
2019-03-05T13:08:08.257Z,10.50
2019-03-05T13:10:38.904Z,8.80
2019-03-05T13:13:13.537Z,3.97
2019-03-05T13:15:42.037Z,4.43
2019-03-05T13:18:14.294Z,3.93
2019-03-05T13:20:45.415Z,5.00
2019-03-05T13:23:16.189Z,4.93
2019-03-05T13:25:46.778Z,11.00
2019-03-05T13:28:17.539Z,3.77
2019-03-05T13:30:48.111Z,3.60
2019-03-05T13:33:19.205Z,2.77
2019-03-05T13:35:50.231Z,4.63
2019-03-05T13:38:20.915Z,3.50
2019-03-05T13:40:51.693Z,3.60
2019-03-05T13:43:22.500Z,6.80
2019-03-05T13:45:53.287Z,5.70
2019-03-05T13:48:58.200Z,5.97
2019-03-05T13:52:20.145Z,7.97
2019-03-05T13:55:41.212Z,4.43
2019-03-05T13:58:47.526Z,11.60
2019-03-05T14:01:18.788Z,13.57
2019-03-05T14:04:02.592Z,7.30
2019-03-05T14:07:14.466Z,9.70
2019-03-05T14:09:43.254Z,6.63
2019-03-05T14:12:14.218Z,4.97
2019-03-05T14:14:44.756Z,9.40
2019-03-05T14:17:29.627Z,2.97
2019-03-05T14:20:00.306Z,8.00
2019-03-05T14:22:31.451Z,4.73
2019-03-05T14:25:03.068Z,3.27
2019-03-05T14:27:33.923Z,2.63
2019-03-05T14:30:05.480Z,2.93
2019-03-05T14:32:36.701Z,7.37
2019-03-05T14:35:11.492Z,6.83
2019-03-05T14:37:42.396Z,6.70
2019-03-05T14:40:28.243Z,6.30
2019-03-05T14:42:59.138Z,6.97
2019-03-05T14:45:31.984Z,8.50
2019-03-05T14:48:04.390Z,5.30
2019-03-05T14:50:35.537Z,5.23
2019-03-05T14:53:06.294Z,11.00
2019-03-05T14:55:37.147Z,6.43
2019-03-05T14:58:07.677Z,7.67
2019-03-05T15:00:39.002Z,5.43
2019-03-05T15:03:09.697Z,6.43
2019-03-05T15:05:40.873Z,7.63
2019-03-05T15:08:11.889Z,8.83
2019-03-05T15:10:42.533Z,9.13
2019-03-05T15:13:17.277Z,9.87
2019-03-05T15:15:45.569Z,10.60
2019-03-05T15:18:16.062Z,10.40
2019-03-05T15:20:46.761Z,19.60
2019-03-05T15:23:17.969Z,7.00
2019-03-05T15:25:48.821Z,8.87
2019-03-05T15:28:19.528Z,8.20
2019-03-05T15:30:50.151Z,11.97
2019-03-05T15:33:21.271Z,8.33
2019-03-05T15:35:52.667Z,11.07
2019-03-05T15:38:23.588Z,16.63
2019-03-05T15:40:54.157Z,12.90
2019-03-05T15:43:25.085Z,15.20
2019-03-05T15:45:55.835Z,13.77
2019-03-05T15:48:26.843Z,22.40
2019-03-05T15:50:58.569Z,14.27
2019-03-05T15:53:29.257Z,9.00
2019-03-05T15:56:00.160Z,20.87
2019-03-05T15:58:30.767Z,11.03
2019-03-05T16:01:01.865Z,17.10
2019-03-05T16:03:36.992Z,10.13
2019-03-05T16:06:07.839Z,9.77
2019-03-05T16:08:38.625Z,14.13
2019-03-05T16:11:09.745Z,11.10
2019-03-05T16:13:40.249Z,11.63
2019-03-05T16:16:10.977Z,29.93
2019-03-05T16:18:41.947Z,7.53
2019-03-05T16:21:12.907Z,9.47
2019-03-05T16:23:43.929Z,11.37
2019-03-05T16:26:14.723Z,9.90
2019-03-05T16:28:46.275Z,13.07
2019-03-05T16:31:32.545Z,7.40
2019-03-05T16:34:14.402Z,8.47
2019-03-05T16:37:07.136Z,10.03
2019-03-05T16:39:48.051Z,13.30
2019-03-05T16:42:33.800Z,13.13
2019-03-05T16:45:11.032Z,14.77
2019-03-05T16:48:09.052Z,14.23
2019-03-05T16:50:54.503Z,10.93
2019-03-05T16:53:43.128Z,16.03
2019-03-05T16:56:29.453Z,13.63
2019-03-05T16:59:25.208Z,14.00
2019-03-05T17:02:23.947Z,22.27
2019-03-05T17:05:16.658Z,21.57
2019-03-05T17:08:14.897Z,19.90
2019-03-05T17:11:04.867Z,16.07
2019-03-05T17:13:35.892Z,17.67
2019-03-05T17:16:06.809Z,16.67
2019-03-05T17:18:37.977Z,18.73
2019-03-05T17:21:08.811Z,13.20
2019-03-05T17:29:11.108Z,23.57
2019-03-05T17:31:42.277Z,23.00
2019-03-05T17:34:13.400Z,26.30
2019-03-05T17:36:44.651Z,20.27
2019-03-05T17:39:21.802Z,18.40
2019-03-05T17:41:52.553Z,24.30
2019-03-05T17:44:23.346Z,20.07
2019-03-05T17:46:54.338Z,18.27
2019-03-05T17:49:25.098Z,22.37
2019-03-05T17:51:55.868Z,25.80
2019-03-05T17:54:26.795Z,21.83
2019-03-05T17:56:57.917Z,24.60
2019-03-05T17:59:31.250Z,25.73
2019-03-05T18:02:01.918Z,23.07
2019-03-05T18:04:32.886Z,22.90
2019-03-05T18:07:03.777Z,23.43
2019-03-05T18:09:34.378Z,21.93
2019-03-05T18:12:05.570Z,21.83
2019-03-05T18:14:36.246Z,16.70
2019-03-05T18:17:07.049Z,20.97
2019-03-05T18:19:38.087Z,15.13
2019-03-05T18:22:08.736Z,19.93
2019-03-05T18:24:39.304Z,13.00
2019-03-05T18:27:10.334Z,12.20
2019-03-05T18:29:41.481Z,7.47
2019-03-05T18:32:12.487Z,16.23
2019-03-05T18:34:43.155Z,5.07
2019-03-05T18:37:13.672Z,6.53
2019-03-05T18:39:44.518Z,5.80
2019-03-05T18:42:15.334Z,6.80
2019-03-05T18:44:46.999Z,5.23
2019-03-05T18:47:17.753Z,6.87
2019-03-05T18:49:48.468Z,3.30
2019-03-05T18:52:19.392Z,4.07
2019-03-05T18:54:50.370Z,11.80
2019-03-05T18:57:21.143Z,9.13
2019-03-05T18:59:52.073Z,4.23
2019-03-05T19:02:22.872Z,8.83
2019-03-05T19:04:53.583Z,8.13
2019-03-05T19:07:24.247Z,6.77
2019-03-05T19:09:54.765Z,10.20
2019-03-05T19:12:26.022Z,8.67
2019-03-05T19:14:56.755Z,7.87
2019-03-05T19:17:27.643Z,10.03
2019-03-05T19:19:58.259Z,11.37
2019-03-05T19:22:28.846Z,10.13
2019-03-05T19:24:59.628Z,11.43
2019-03-05T19:27:30.267Z,13.43
2019-03-05T19:30:01.029Z,11.93
2019-03-05T19:32:35.723Z,11.33
2019-03-05T19:35:06.773Z,12.97
2019-03-05T19:37:37.710Z,10.83
2019-03-05T19:40:10.480Z,23.93
2019-03-05T19:42:41.318Z,11.67
2019-03-05T19:45:12.535Z,13.07
2019-03-05T19:47:43.263Z,16.73
2019-03-05T19:50:15.470Z,13.37
2019-03-05T19:52:46.130Z,10.03
2019-03-05T19:55:19.719Z,13.57
2019-03-05T19:57:50.907Z,12.30
2019-03-05T20:00:30.795Z,15.00
2019-03-05T20:03:01.666Z,16.97
2019-03-05T20:05:32.540Z,13.80
2019-03-05T20:08:03.320Z,17.60
2019-03-05T20:10:34.668Z,14.67
2019-03-05T20:13:05.601Z,7.80
2019-03-05T20:15:36.235Z,11.03
2019-03-05T20:18:07.499Z,9.43
2019-03-05T20:20:38.478Z,9.57
2019-03-05T20:23:09.438Z,8.43
2019-03-05T20:25:40.480Z,5.13
2019-03-05T20:28:11.462Z,5.30
2019-03-05T20:30:42.625Z,18.60
2019-03-05T20:33:14.243Z,7.17
2019-03-05T20:35:45.075Z,3.77
2019-03-05T20:38:15.943Z,6.37
2019-03-05T20:40:47.140Z,8.33
2019-03-05T20:43:19.063Z,10.33
2019-03-05T20:45:50.337Z,7.27
2019-03-05T20:48:21.718Z,8.83
2019-03-05T20:50:52.728Z,11.13
2019-03-05T20:53:23.735Z,10.10
2019-03-05T20:55:54.701Z,10.00
2019-03-05T20:58:25.940Z,9.20
2019-03-05T21:00:57.139Z,10.10
2019-03-05T21:03:28.011Z,11.50
2019-03-05T21:05:59.154Z,8.80
2019-03-05T21:08:30.163Z,7.57
2019-03-05T21:11:01.154Z,9.07
2019-03-05T21:13:31.913Z,7.73
2019-03-05T21:16:02.938Z,12.37
2019-03-05T21:18:33.781Z,10.47
2019-03-05T21:21:04.677Z,9.00
2019-03-05T21:23:35.412Z,9.53
2019-03-05T21:26:06.051Z,12.00
2019-03-05T21:28:36.596Z,9.57
2019-03-05T21:31:07.380Z,13.43
2019-03-05T21:33:38.077Z,10.23
2019-03-05T21:36:08.804Z,10.50
2019-03-05T21:38:39.664Z,10.57
2019-03-05T21:41:10.370Z,11.33
2019-03-05T21:43:41.035Z,11.43
2019-03-05T21:46:15.312Z,11.17
2019-03-05T21:48:46.670Z,17.03
2019-03-05T21:51:17.380Z,13.63
2019-03-05T21:53:48.243Z,11.60
2019-03-05T21:56:19.104Z,17.83
2019-03-05T21:58:49.775Z,16.17
2019-03-05T22:01:20.370Z,21.17
2019-03-05T22:03:51.229Z,17.60
2019-03-05T22:06:22.640Z,16.80
2019-03-05T22:08:53.383Z,18.37
2019-03-05T22:11:23.994Z,19.73
2019-03-05T22:13:54.641Z,18.17
2019-03-05T22:16:25.388Z,18.93
2019-03-05T22:18:56.041Z,22.53
2019-03-05T22:21:26.718Z,21.00
2019-03-05T22:23:57.320Z,16.87
2019-03-05T22:26:27.977Z,20.83
2019-03-05T22:28:58.582Z,24.60
2019-03-05T22:31:29.201Z,27.40
2019-03-05T22:33:59.773Z,18.67
2019-03-05T22:36:30.386Z,26.37
2019-03-05T22:39:01.032Z,20.80
2019-03-05T22:41:33.379Z,19.37
2019-03-05T22:44:03.962Z,18.07
2019-03-05T22:46:34.784Z,27.63
2019-03-05T22:49:05.422Z,23.40
2019-03-05T22:51:35.964Z,20.93
2019-03-05T22:54:06.691Z,21.80
2019-03-05T22:56:37.190Z,17.30
2019-03-05T22:59:08.026Z,21.37
2019-03-05T23:01:41.354Z,20.43
2019-03-05T23:04:14.317Z,21.70
2019-03-05T23:06:45.001Z,21.43
2019-03-05T23:09:23.674Z,27.20
2019-03-05T23:11:54.631Z,23.60
2019-03-05T23:14:25.189Z,16.93
2019-03-05T23:16:56.068Z,22.37
2019-03-05T23:19:27.107Z,21.67
2019-03-05T23:21:58.697Z,17.03
2019-03-05T23:24:29.239Z,18.80
2019-03-05T23:26:59.964Z,15.73
2019-03-05T23:29:49.488Z,20.93
2019-03-05T23:32:20.093Z,15.40
2019-03-05T23:34:51.008Z,18.33
2019-03-05T23:37:21.548Z,20.07
2019-03-05T23:39:52.220Z,16.67
2019-03-05T23:42:23.204Z,13.20
2019-03-05T23:44:53.847Z,15.37
2019-03-05T23:47:24.415Z,17.40
2019-03-05T23:49:55.106Z,18.77
2019-03-05T23:52:25.662Z,14.20
2019-03-05T23:54:56.252Z,15.70
2019-03-05T23:57:26.790Z,14.40
2019-03-05T23:59:57.336Z,10.37
